createdAt,value
2022-11-14T00:02:38.852Z,98036.20
2022-11-14T00:05:24.798Z,98045.00
2022-11-14T00:08:28.685Z,98042.80
2022-11-14T00:11:14.533Z,98041.00
2022-11-14T00:14:00.197Z,98040.20
2022-11-14T00:16:46.271Z,98026.60
2022-11-14T00:19:31.955Z,98032.80
2022-11-14T00:22:17.437Z,98029.60
2022-11-14T00:25:04.478Z,98026.40
2022-11-14T00:27:50.234Z,98024.80
2022-11-14T00:30:35.884Z,98034.00
2022-11-14T00:33:21.463Z,98037.00
2022-11-14T00:36:07.054Z,98043.80
2022-11-14T00:38:54.953Z,98055.00
2022-11-14T00:41:43.327Z,98054.40
2022-11-14T00:44:28.827Z,98065.40
2022-11-14T00:47:14.340Z,98052.60
2022-11-14T00:50:00.113Z,98057.40
2022-11-14T00:52:45.388Z,98048.60
2022-11-14T00:55:30.966Z,98043.60
2022-11-14T00:58:16.749Z,98052.40
2022-11-14T01:01:02.197Z,98054.20
2022-11-14T01:03:52.414Z,98058.20
2022-11-14T01:06:37.614Z,98056.20
2022-11-14T01:09:23.494Z,98056.80
2022-11-14T01:12:09.265Z,98044.40
2022-11-14T01:14:55.090Z,98040.40
2022-11-14T01:17:40.694Z,98036.20
2022-11-14T01:20:26.113Z,98031.60
2022-11-14T01:23:14.081Z,98027.80
2022-11-14T01:26:09.449Z,98019.80
2022-11-14T01:28:54.667Z,98015.00
2022-11-14T01:31:40.378Z,98006.40
2022-11-14T01:34:26.666Z,98007.40
2022-11-14T01:37:11.929Z,98004.20
2022-11-14T01:39:57.730Z,98003.60
2022-11-14T01:42:43.363Z,98002.60
2022-11-14T01:45:47.782Z,98001.80
2022-11-14T01:49:05.313Z,97996.40
2022-11-14T01:51:58.626Z,97985.80
2022-11-14T01:54:49.838Z,97983.80
2022-11-14T01:57:45.851Z,97986.80
2022-11-14T02:00:31.806Z,97984.00
2022-11-14T02:03:19.390Z,97983.00
2022-11-14T02:06:08.894Z,97988.40
2022-11-14T02:08:56.896Z,97989.40
2022-11-14T02:11:45.506Z,97983.40
2022-11-14T02:14:32.836Z,97975.60
2022-11-14T02:17:29.615Z,97979.40
2022-11-14T02:20:22.128Z,97969.40
2022-11-14T02:23:07.691Z,97977.40
2022-11-14T02:25:53.272Z,97978.20
2022-11-14T02:28:38.852Z,97968.60
2022-11-14T02:31:24.434Z,97966.00
2022-11-14T02:34:10.018Z,97965.00
2022-11-14T02:36:56.025Z,97974.00
2022-11-14T02:39:41.794Z,97975.60
2022-11-14T02:42:27.367Z,97972.60
2022-11-14T02:45:13.707Z,97970.60
2022-11-14T02:47:59.358Z,97961.60
2022-11-14T02:50:44.935Z,97949.60
2022-11-14T02:53:30.429Z,97951.40
2022-11-14T02:56:16.055Z,97953.00
2022-11-14T02:59:02.379Z,97957.00
2022-11-14T03:01:48.059Z,97959.60
2022-11-14T03:04:33.556Z,97947.80
2022-11-14T03:07:19.313Z,97953.00
2022-11-14T03:10:06.159Z,97953.80
2022-11-14T03:12:56.760Z,97949.00
2022-11-14T03:15:42.017Z,97952.80
2022-11-14T03:18:27.561Z,97949.40
2022-11-14T03:21:17.795Z,97944.20
2022-11-14T03:24:03.793Z,97943.80
2022-11-14T03:26:49.380Z,97937.00
2022-11-14T03:29:35.061Z,97935.00
2022-11-14T03:32:20.517Z,97932.20
2022-11-14T03:35:07.543Z,97932.00
2022-11-14T03:37:56.369Z,97927.60
2022-11-14T03:40:42.505Z,97934.40
2022-11-14T03:43:33.570Z,97929.20
2022-11-14T03:46:19.030Z,97924.20
2022-11-14T03:49:05.327Z,97908.80
2022-11-14T03:51:51.014Z,97903.80
2022-11-14T03:54:36.457Z,97905.40
2022-11-14T03:57:21.934Z,97901.80
2022-11-14T04:00:09.465Z,97891.80
2022-11-14T04:02:56.639Z,97894.00
2022-11-14T04:05:46.464Z,97890.00
2022-11-14T04:08:33.229Z,97894.20
2022-11-14T04:11:20.087Z,97899.60
2022-11-14T04:14:06.056Z,97897.00
2022-11-14T04:16:51.687Z,97877.80
2022-11-14T04:19:37.540Z,97869.40
2022-11-14T04:22:23.330Z,97864.20
2022-11-14T04:25:10.349Z,97866.00
2022-11-14T04:27:55.750Z,97862.20
2022-11-14T04:30:41.619Z,97860.60
2022-11-14T04:33:27.858Z,97863.60
2022-11-14T04:36:13.490Z,97869.00
2022-11-14T04:38:59.481Z,97876.60
2022-11-14T04:41:45.024Z,97876.00
2022-11-14T04:44:30.466Z,97876.00
2022-11-14T04:47:15.918Z,97870.00
2022-11-14T04:50:02.098Z,97878.20
2022-11-14T04:52:47.573Z,97879.00
2022-11-14T04:55:33.586Z,97880.80
2022-11-14T04:58:18.960Z,97870.60
2022-11-14T05:01:10.773Z,97856.20
2022-11-14T05:03:56.375Z,97854.60
2022-11-14T05:06:42.162Z,97857.40
2022-11-14T05:09:28.774Z,97857.20
2022-11-14T05:12:14.161Z,97861.40
2022-11-14T05:14:59.799Z,97859.80
2022-11-14T05:17:45.406Z,97870.40
2022-11-14T05:20:31.118Z,97865.00
2022-11-14T05:23:22.721Z,97874.00
2022-11-14T05:26:13.402Z,97861.80
2022-11-14T05:28:58.986Z,97870.40
2022-11-14T05:31:44.679Z,97872.20
2022-11-14T05:34:30.262Z,97871.80
2022-11-14T05:37:15.795Z,97875.60
2022-11-14T05:40:02.536Z,97877.40
2022-11-14T05:42:48.133Z,97876.20
2022-11-14T05:45:33.666Z,97872.20
2022-11-14T05:48:18.984Z,97869.20
2022-11-14T05:51:06.932Z,97867.40
2022-11-14T05:53:52.447Z,97877.00
2022-11-14T05:56:38.068Z,97889.00
2022-11-14T05:59:23.759Z,97884.40
2022-11-14T06:02:09.924Z,97881.00
2022-11-14T06:04:55.514Z,97881.60
2022-11-14T06:07:41.153Z,97875.80
2022-11-14T06:10:27.637Z,97884.00
2022-11-14T06:13:13.188Z,97881.80
2022-11-14T06:16:08.026Z,97880.40
2022-11-14T06:18:54.926Z,97883.20
2022-11-14T06:21:40.353Z,97886.20
2022-11-14T06:24:26.092Z,97886.60
2022-11-14T06:27:11.415Z,97885.40
2022-11-14T06:29:57.046Z,97895.80
2022-11-14T06:32:42.516Z,97900.60
2022-11-14T06:35:28.290Z,97902.80
2022-11-14T06:38:13.688Z,97897.60
2022-11-14T06:41:21.010Z,97898.60
2022-11-14T06:44:08.921Z,97897.80
2022-11-14T06:46:55.187Z,97895.40
2022-11-14T06:49:41.125Z,97893.80
2022-11-14T06:52:27.323Z,97892.20
2022-11-14T06:55:12.887Z,97898.00
2022-11-14T06:57:58.420Z,97897.00
2022-11-14T07:00:43.923Z,97900.40
2022-11-14T07:03:29.524Z,97893.80
2022-11-14T07:06:24.278Z,97889.00
2022-11-14T07:09:11.846Z,97892.80
2022-11-14T07:11:57.583Z,97882.40
2022-11-14T07:14:42.910Z,97887.40
2022-11-14T07:17:31.273Z,97895.20
2022-11-14T07:20:20.533Z,97888.40
2022-11-14T07:23:05.854Z,97877.00
2022-11-14T07:25:51.949Z,97875.60
2022-11-14T07:28:41.587Z,97871.40
2022-11-14T07:31:27.263Z,97872.20
2022-11-14T07:34:12.653Z,97874.20
2022-11-14T07:36:58.194Z,97878.00
2022-11-14T07:39:43.774Z,97874.40
2022-11-14T07:42:30.006Z,97880.60
2022-11-14T07:45:15.981Z,97883.00
2022-11-14T07:48:02.991Z,97884.80
2022-11-14T07:50:48.537Z,97879.60
2022-11-14T07:53:34.563Z,97878.80
2022-11-14T07:56:22.290Z,97880.00
2022-11-14T07:59:07.878Z,97879.00
2022-11-14T08:01:53.237Z,97878.40
2022-11-14T08:04:38.837Z,97875.80
2022-11-14T08:07:24.271Z,97866.40
2022-11-14T08:10:12.058Z,97861.00
2022-11-14T08:13:25.268Z,97854.20
2022-11-14T08:16:12.878Z,97849.00
2022-11-14T08:18:59.614Z,97846.40
2022-11-14T08:21:45.349Z,97845.20
2022-11-14T08:24:30.870Z,97830.60
2022-11-14T08:27:16.669Z,97831.20
2022-11-14T08:30:02.039Z,97824.20
2022-11-14T08:32:47.304Z,97808.20
2022-11-14T08:35:34.280Z,97805.60
2022-11-14T08:38:19.630Z,97805.60
2022-11-14T08:41:05.496Z,97807.40
2022-11-14T08:43:51.250Z,97813.40
2022-11-14T08:46:36.601Z,97811.20
2022-11-14T08:49:22.209Z,97805.80
2022-11-14T08:52:09.296Z,97793.20
2022-11-14T08:54:57.704Z,97785.40
2022-11-14T08:57:49.053Z,97774.00
2022-11-14T09:00:34.985Z,97784.40
2022-11-14T09:03:20.859Z,97775.60
2022-11-14T09:06:06.778Z,97765.20
2022-11-14T09:08:52.303Z,97765.60
2022-11-14T09:11:37.644Z,97768.40
2022-11-14T09:14:23.532Z,97758.60
2022-11-14T09:17:09.528Z,97739.00
2022-11-14T09:19:55.953Z,97739.00
2022-11-14T09:22:41.213Z,97748.20
2022-11-14T09:25:27.220Z,97743.80
2022-11-14T09:28:12.928Z,97743.60
2022-11-14T09:31:10.874Z,97741.80
2022-11-14T09:33:56.431Z,97745.00
2022-11-14T09:36:41.786Z,97743.40
2022-11-14T09:39:27.228Z,97743.20
2022-11-14T09:42:39.283Z,97742.20
2022-11-14T09:45:25.785Z,97740.60
2022-11-14T09:48:18.433Z,97734.80
2022-11-14T09:51:15.377Z,97722.00
2022-11-14T09:54:19.074Z,97729.20
2022-11-14T09:57:16.481Z,97721.80
2022-11-14T10:00:02.356Z,97718.80
2022-11-14T10:03:06.274Z,97716.60
2022-11-14T10:06:33.196Z,97701.00
2022-11-14T10:09:49.401Z,97702.00
2022-11-14T10:12:51.372Z,97699.60
2022-11-14T10:15:48.280Z,97700.00
2022-11-14T10:19:23.283Z,97694.20
2022-11-14T10:22:27.877Z,97684.80
2022-11-14T10:25:27.934Z,97680.80
2022-11-14T10:28:22.079Z,97675.20
2022-11-14T10:32:11.827Z,97666.00
2022-11-14T10:35:12.998Z,97650.20
2022-11-14T10:38:07.247Z,97637.00
2022-11-14T10:41:02.213Z,97645.60
2022-11-14T10:43:50.782Z,97640.20
2022-11-14T10:46:41.353Z,97635.20
2022-11-14T10:49:32.665Z,97629.60
2022-11-14T10:52:36.475Z,97624.60
2022-11-14T10:55:32.041Z,97610.00
2022-11-14T10:58:28.355Z,97606.40
2022-11-14T11:01:56.786Z,97602.80
2022-11-14T11:04:45.233Z,97601.00
2022-11-14T11:07:49.032Z,97608.40
2022-11-14T11:11:05.146Z,97609.00
2022-11-14T11:13:57.388Z,97613.60
2022-11-14T11:16:43.146Z,97608.20
2022-11-14T11:19:31.126Z,97600.60
2022-11-14T11:22:39.169Z,97598.20
2022-11-14T11:25:29.283Z,97603.00
2022-11-14T11:28:21.361Z,97594.20
2022-11-14T11:31:10.641Z,97590.20
2022-11-14T11:34:04.087Z,97582.00
2022-11-14T11:37:14.670Z,97576.00
2022-11-14T11:40:06.724Z,97575.00
2022-11-14T11:46:28.706Z,97571.20
2022-11-14T11:49:43.596Z,97565.60
2022-11-14T11:52:30.252Z,97560.40
2022-11-14T11:55:25.473Z,97558.60
2022-11-14T11:58:21.758Z,97574.20
2022-11-14T12:01:12.190Z,97578.60
2022-11-14T12:03:58.735Z,97574.80
2022-11-14T12:07:43.628Z,97578.80
2022-11-14T12:10:36.383Z,97579.80
2022-11-14T12:14:07.007Z,97573.00
2022-11-14T12:17:44.923Z,97579.20
2022-11-14T12:20:40.906Z,97574.40
2022-11-14T12:23:56.702Z,97582.60
2022-11-14T12:27:03.378Z,97575.00
2022-11-14T12:30:24.250Z,97582.40
2022-11-14T12:33:53.824Z,97586.80
2022-11-14T12:36:44.159Z,97595.20
2022-11-14T12:39:32.983Z,97596.00
2022-11-14T12:42:21.890Z,97596.00
2022-11-14T12:45:41.330Z,97591.80
2022-11-14T12:48:26.796Z,97596.40
2022-11-14T12:51:30.270Z,97595.20
2022-11-14T12:54:49.292Z,97593.80
2022-11-14T12:58:06.217Z,97594.00
2022-11-14T13:01:00.019Z,97593.60
2022-11-14T13:04:03.956Z,97596.40
2022-11-14T13:07:51.605Z,97598.20
2022-11-14T13:10:40.896Z,97592.00
2022-11-14T13:13:45.194Z,97595.60
2022-11-14T13:16:51.156Z,97591.60
2022-11-14T13:20:05.107Z,97592.60
2022-11-14T13:22:50.886Z,97590.20
2022-11-14T13:25:36.271Z,97590.20
2022-11-14T13:28:49.994Z,97598.40
2022-11-14T13:31:38.659Z,97597.00
2022-11-14T13:34:42.623Z,97600.80
2022-11-14T13:38:18.330Z,97601.60
2022-11-14T13:41:47.374Z,97605.00
2022-11-14T13:44:51.436Z,97603.60
2022-11-14T13:48:34.717Z,97598.80
2022-11-14T13:54:31.337Z,97592.00
2022-11-14T13:58:12.459Z,97590.80
2022-11-14T14:01:15.995Z,97587.20
2022-11-14T14:04:33.837Z,97582.60
2022-11-14T14:08:05.343Z,97572.40
2022-11-14T14:10:53.805Z,97570.60
2022-11-14T14:13:45.494Z,97571.00
2022-11-14T14:16:52.127Z,97564.60
2022-11-14T14:19:52.188Z,97553.40
2022-11-14T14:23:08.490Z,97544.40
2022-11-14T14:26:29.502Z,97542.20
2022-11-14T14:30:07.856Z,97534.00
2022-11-14T14:33:11.782Z,97539.80
2022-11-14T14:35:57.517Z,97546.60
2022-11-14T14:38:43.098Z,97543.60
2022-11-14T14:41:32.766Z,97544.40
2022-11-14T14:44:37.191Z,97541.80
2022-11-14T14:47:45.611Z,97541.60
2022-11-14T14:50:42.016Z,97538.60
2022-11-14T14:53:32.032Z,97536.40
2022-11-14T14:56:21.310Z,97539.00
2022-11-14T14:59:24.835Z,97534.40
2022-11-14T15:02:22.704Z,97530.60
2022-11-14T15:05:08.574Z,97525.80
2022-11-14T15:08:00.242Z,97522.00
2022-11-14T15:10:46.514Z,97526.60
2022-11-14T15:13:34.252Z,97526.00
2022-11-14T15:16:21.248Z,97522.00
2022-11-14T15:19:10.579Z,97522.60
2022-11-14T15:22:20.250Z,97517.20
2022-11-14T15:25:12.077Z,97527.80
2022-11-14T15:28:00.800Z,97522.20
2022-11-14T15:31:04.892Z,97523.60
2022-11-14T15:34:33.449Z,97525.60
2022-11-14T15:37:22.993Z,97524.20
2022-11-14T15:40:21.036Z,97526.20
2022-11-14T15:43:44.150Z,97527.00
2022-11-14T15:46:47.281Z,97520.80
2022-11-14T15:49:32.666Z,97514.60
2022-11-14T15:52:41.450Z,97513.20
2022-11-14T15:55:27.155Z,97514.00
2022-11-14T15:58:27.703Z,97509.20
2022-11-14T16:01:24.074Z,97515.00
2022-11-14T16:04:23.337Z,97531.00
2022-11-14T16:07:14.795Z,97529.40
2022-11-14T16:10:00.449Z,97537.20
2022-11-14T16:12:52.065Z,97545.00
2022-11-14T16:15:38.625Z,97547.80
2022-11-14T16:18:24.120Z,97549.80
2022-11-14T16:21:18.452Z,97549.20
2022-11-14T16:24:05.359Z,97550.60
2022-11-14T16:26:50.964Z,97550.00
2022-11-14T16:29:36.354Z,97554.00
2022-11-14T16:32:23.529Z,97552.20
2022-11-14T16:35:18.153Z,97554.20
2022-11-14T16:38:04.269Z,97558.00
2022-11-14T16:40:49.851Z,97565.80
2022-11-14T16:43:35.914Z,97571.00
2022-11-14T16:46:22.147Z,97565.20
2022-11-14T16:49:07.505Z,97572.00
2022-11-14T16:51:55.963Z,97577.60
2022-11-14T16:54:41.347Z,97571.20
2022-11-14T16:57:27.147Z,97572.80
2022-11-14T17:00:13.735Z,97570.60
2022-11-14T17:02:59.113Z,97570.80
2022-11-14T17:05:48.509Z,97553.60
2022-11-14T17:08:34.976Z,97559.00
2022-11-14T17:11:21.079Z,97557.60
2022-11-14T17:14:08.015Z,97564.20
2022-11-14T17:16:53.778Z,97564.00
2022-11-14T17:19:45.764Z,97564.40
2022-11-14T17:22:31.957Z,97570.60
2022-11-14T17:25:18.106Z,97577.20
2022-11-14T17:28:04.945Z,97571.80
2022-11-14T17:30:50.538Z,97569.80
2022-11-14T17:33:38.080Z,97570.60
2022-11-14T17:36:27.341Z,97573.40
2022-11-14T17:39:14.116Z,97579.40
2022-11-14T17:42:00.839Z,97588.60
2022-11-14T17:44:48.162Z,97594.40
2022-11-14T17:47:33.581Z,97588.40
2022-11-14T17:50:20.202Z,97586.20
2022-11-14T17:53:05.564Z,97580.60
2022-11-14T17:55:57.561Z,97579.00
2022-11-14T17:58:44.045Z,97583.00
2022-11-14T18:01:31.976Z,97580.20
2022-11-14T18:04:18.369Z,97580.80
2022-11-14T18:07:04.082Z,97589.40
2022-11-14T18:09:50.466Z,97594.60
2022-11-14T18:12:36.215Z,97592.80
2022-11-14T18:15:27.606Z,97594.40
2022-11-14T18:18:13.782Z,97599.00
2022-11-14T18:21:08.700Z,97597.40
2022-11-14T18:23:57.940Z,97599.00
2022-11-14T18:26:43.251Z,97589.20
2022-11-14T18:29:30.818Z,97607.40
2022-11-14T18:32:16.630Z,97610.40
2022-11-14T18:35:02.318Z,97608.80
2022-11-14T18:37:47.665Z,97606.60
2022-11-14T18:40:33.381Z,97597.00
2022-11-14T18:43:19.158Z,97600.00
2022-11-14T18:46:07.296Z,97599.60
2022-11-14T18:48:57.397Z,97605.20
2022-11-14T18:51:43.251Z,97606.80
2022-11-14T18:54:28.737Z,97606.20
2022-11-14T18:57:14.044Z,97604.20
2022-11-14T18:59:59.794Z,97606.20
2022-11-14T19:02:52.324Z,97602.60
2022-11-14T19:05:37.950Z,97601.60
2022-11-14T19:08:23.451Z,97599.40
2022-11-14T19:11:30.773Z,97600.60
2022-11-14T19:14:16.984Z,97592.60
2022-11-14T19:17:04.857Z,97604.80
2022-11-14T19:19:53.995Z,97613.00
2022-11-14T19:22:39.775Z,97614.00
2022-11-14T19:25:25.453Z,97623.20
2022-11-14T19:28:10.935Z,97610.20
2022-11-14T19:31:05.626Z,97623.60
2022-11-14T19:33:51.076Z,97623.40
2022-11-14T19:39:42.300Z,97629.80
2022-11-14T19:42:28.126Z,97631.80
2022-11-14T19:45:13.689Z,97637.40
2022-11-14T19:47:58.984Z,97638.80
2022-11-14T19:50:44.461Z,97639.00
2022-11-14T19:53:34.091Z,97636.60
2022-11-14T19:56:21.188Z,97642.60
2022-11-14T19:59:12.843Z,97643.60
2022-11-14T20:02:00.451Z,97637.80
2022-11-14T20:04:47.112Z,97644.40
2022-11-14T20:07:35.550Z,97636.60
2022-11-14T20:10:21.660Z,97649.80
2022-11-14T20:13:07.355Z,97653.60
2022-11-14T20:15:53.140Z,97655.20
2022-11-14T20:18:41.122Z,97660.40
2022-11-14T20:21:30.346Z,97659.20
2022-11-14T20:24:21.606Z,97664.40
2022-11-14T20:27:07.212Z,97675.80
2022-11-14T20:29:52.966Z,97672.00
2022-11-14T20:32:38.493Z,97665.00
2022-11-14T20:35:24.080Z,97677.60
2022-11-14T20:38:09.635Z,97676.80
2022-11-14T20:40:56.173Z,97672.40
2022-11-14T20:43:43.484Z,97675.00
2022-11-14T20:46:29.589Z,97678.40
2022-11-14T20:49:15.361Z,97679.00
2022-11-14T20:52:04.853Z,97669.80
2022-11-14T20:54:50.511Z,97659.00
2022-11-14T20:57:35.900Z,97659.60
2022-11-14T21:00:21.522Z,97663.60
2022-11-14T21:03:08.037Z,97668.80
2022-11-14T21:05:54.994Z,97669.00
2022-11-14T21:08:42.533Z,97663.00
2022-11-14T21:11:28.231Z,97662.20
2022-11-14T21:14:13.788Z,97663.80
2022-11-14T21:16:58.968Z,97664.80
2022-11-14T21:19:44.549Z,97668.00
2022-11-14T21:22:30.162Z,97671.00
2022-11-14T21:25:15.907Z,97669.80
2022-11-14T21:28:01.381Z,97670.00
2022-11-14T21:30:47.075Z,97657.20
2022-11-14T21:33:33.171Z,97657.20
2022-11-14T21:36:43.852Z,97644.80
2022-11-14T21:39:26.242Z,97647.00
2022-11-14T21:42:15.625Z,97643.00
2022-11-14T21:45:04.630Z,97643.60
2022-11-14T21:47:50.563Z,97646.20
2022-11-14T21:50:36.249Z,97636.80
2022-11-14T21:53:21.627Z,97638.60
2022-11-14T21:56:16.459Z,97633.00
2022-11-14T21:59:15.283Z,97640.40
2022-11-14T22:02:19.558Z,97638.20
2022-11-14T22:05:05.120Z,97636.40
2022-11-14T22:07:50.734Z,97635.80
2022-11-14T22:10:36.275Z,97635.40
2022-11-14T22:13:22.065Z,97638.40
2022-11-14T22:16:11.215Z,97638.40
2022-11-14T22:19:01.944Z,97635.80
2022-11-14T22:21:50.796Z,97632.60
2022-11-14T22:24:36.093Z,97634.60
2022-11-14T22:27:21.463Z,97630.80
2022-11-14T22:30:07.951Z,97630.40
2022-11-14T22:32:53.537Z,97630.00
2022-11-14T22:35:39.510Z,97633.80
2022-11-14T22:38:24.894Z,97637.80
2022-11-14T22:41:17.532Z,97645.20
2022-11-14T22:44:02.905Z,97649.40
2022-11-14T22:46:48.763Z,97644.80
2022-11-14T22:49:34.443Z,97638.60
2022-11-14T22:52:20.017Z,97631.20
2022-11-14T22:55:06.406Z,97626.20
2022-11-14T22:57:51.748Z,97626.80
2022-11-14T23:00:37.522Z,97626.20
2022-11-14T23:03:23.516Z,97616.60
2022-11-14T23:06:12.608Z,97626.40
2022-11-14T23:08:58.381Z,97628.40
2022-11-14T23:11:44.262Z,97630.00
2022-11-14T23:14:29.746Z,97631.80
2022-11-14T23:17:15.394Z,97630.00
2022-11-14T23:20:01.117Z,97624.20
2022-11-14T23:22:47.021Z,97625.40
2022-11-14T23:25:32.271Z,97623.80
2022-11-14T23:28:17.956Z,97620.60
2022-11-14T23:31:04.665Z,97616.60
2022-11-14T23:33:53.009Z,97616.60
2022-11-14T23:36:38.669Z,97622.60
2022-11-14T23:39:24.377Z,97623.00
2022-11-14T23:42:10.075Z,97621.60
2022-11-14T23:44:55.644Z,97623.20
2022-11-14T23:47:41.171Z,97620.40
2022-11-14T23:50:27.187Z,97620.60
2022-11-14T23:53:12.870Z,97615.60
2022-11-14T23:56:01.496Z,97604.00
2022-11-14T23:58:46.827Z,97601.40
